sensor_id;sensor_type;location;lat;lon;timestamp;temperature;humidity
9849;DHT22;4963;51.444;6.528;2022-08-16T00:00:32;23.10;99.90
9849;DHT22;4963;51.444;6.528;2022-08-16T00:03:01;23.20;99.90
9849;DHT22;4963;51.444;6.528;2022-08-16T00:05:29;23.10;99.90
9849;DHT22;4963;51.444;6.528;2022-08-16T00:07:56;23.10;99.90
9849;DHT22;4963;51.444;6.528;2022-08-16T00:10:26;23.00;99.90
9849;DHT22;4963;51.444;6.528;2022-08-16T00:12:54;23.00;99.90
9849;DHT22;4963;51.444;6.528;2022-08-16T00:15:23;22.90;99.90
9849;DHT22;4963;51.444;6.528;2022-08-16T00:17:52;22.90;99.90
9849;DHT22;4963;51.444;6.528;2022-08-16T00:20:19;22.90;99.90
9849;DHT22;4963;51.444;6.528;2022-08-16T00:22:49;22.90;99.90
9849;DHT22;4963;51.444;6.528;2022-08-16T00:25:18;22.80;99.90
9849;DHT22;4963;51.444;6.528;2022-08-16T00:27:46;22.80;99.90
9849;DHT22;4963;51.444;6.528;2022-08-16T00:30:14;22.80;99.90
9849;DHT22;4963;51.444;6.528;2022-08-16T00:32:45;22.80;99.90
9849;DHT22;4963;51.444;6.528;2022-08-16T00:35:15;22.80;99.90
9849;DHT22;4963;51.444;6.528;2022-08-16T00:37:43;22.80;99.90
9849;DHT22;4963;51.444;6.528;2022-08-16T00:40:12;22.80;99.90
9849;DHT22;4963;51.444;6.528;2022-08-16T00:42:40;22.80;99.90
9849;DHT22;4963;51.444;6.528;2022-08-16T00:45:22;22.70;99.90
9849;DHT22;4963;51.444;6.528;2022-08-16T00:47:51;22.70;99.90
9849;DHT22;4963;51.444;6.528;2022-08-16T00:50:23;22.70;99.90
9849;DHT22;4963;51.444;6.528;2022-08-16T00:52:50;22.80;99.90
9849;DHT22;4963;51.444;6.528;2022-08-16T00:55:19;22.80;99.90
9849;DHT22;4963;51.444;6.528;2022-08-16T00:57:49;22.80;99.90
9849;DHT22;4963;51.444;6.528;2022-08-16T01:00:16;22.80;99.90
9849;DHT22;4963;51.444;6.528;2022-08-16T01:02:43;22.70;99.90
9849;DHT22;4963;51.444;6.528;2022-08-16T01:05:10;22.70;99.90
9849;DHT22;4963;51.444;6.528;2022-08-16T01:07:40;22.60;99.90
9849;DHT22;4963;51.444;6.528;2022-08-16T01:10:09;22.60;99.90
9849;DHT22;4963;51.444;6.528;2022-08-16T01:12:36;22.60;99.90
9849;DHT22;4963;51.444;6.528;2022-08-16T01:15:04;22.60;99.90
9849;DHT22;4963;51.444;6.528;2022-08-16T01:17:32;22.60;99.90
9849;DHT22;4963;51.444;6.528;2022-08-16T01:20:01;22.60;99.90
9849;DHT22;4963;51.444;6.528;2022-08-16T01:22:35;22.60;99.90
9849;DHT22;4963;51.444;6.528;2022-08-16T01:25:09;22.60;99.90
9849;DHT22;4963;51.444;6.528;2022-08-16T01:27:42;22.60;99.90
9849;DHT22;4963;51.444;6.528;2022-08-16T01:30:12;22.60;99.90
9849;DHT22;4963;51.444;6.528;2022-08-16T01:32:40;22.60;99.90
9849;DHT22;4963;51.444;6.528;2022-08-16T01:35:17;22.60;99.90
9849;DHT22;4963;51.444;6.528;2022-08-16T01:37:47;22.70;99.90
9849;DHT22;4963;51.444;6.528;2022-08-16T01:40:18;22.70;99.90
9849;DHT22;4963;51.444;6.528;2022-08-16T01:42:47;22.70;99.90
9849;DHT22;4963;51.444;6.528;2022-08-16T01:45:15;22.70;99.90
9849;DHT22;4963;51.444;6.528;2022-08-16T01:47:43;22.80;99.90
9849;DHT22;4963;51.444;6.528;2022-08-16T01:50:11;22.80;99.90
9849;DHT22;4963;51.444;6.528;2022-08-16T01:52:39;22.80;99.90
9849;DHT22;4963;51.444;6.528;2022-08-16T01:55:07;22.80;99.90
9849;DHT22;4963;51.444;6.528;2022-08-16T01:57:35;22.70;99.90
9849;DHT22;4963;51.444;6.528;2022-08-16T02:00:06;22.70;99.90
9849;DHT22;4963;51.444;6.528;2022-08-16T02:02:34;22.70;99.90
9849;DHT22;4963;51.444;6.528;2022-08-16T02:05:01;22.60;99.90
9849;DHT22;4963;51.444;6.528;2022-08-16T02:07:28;22.60;99.90
9849;DHT22;4963;51.444;6.528;2022-08-16T02:09:55;22.50;99.90
9849;DHT22;4963;51.444;6.528;2022-08-16T02:12:22;22.50;99.90
9849;DHT22;4963;51.444;6.528;2022-08-16T02:14:50;22.50;99.90
9849;DHT22;4963;51.444;6.528;2022-08-16T02:17:17;22.40;99.90
9849;DHT22;4963;51.444;6.528;2022-08-16T02:19:44;22.40;99.90
9849;DHT22;4963;51.444;6.528;2022-08-16T02:22:17;22.30;99.90
9849;DHT22;4963;51.444;6.528;2022-08-16T02:24:44;22.30;99.90
9849;DHT22;4963;51.444;6.528;2022-08-16T02:27:12;22.20;99.90
9849;DHT22;4963;51.444;6.528;2022-08-16T02:29:40;22.10;99.90
9849;DHT22;4963;51.444;6.528;2022-08-16T02:32:10;22.10;99.90
9849;DHT22;4963;51.444;6.528;2022-08-16T02:34:38;22.20;99.90
9849;DHT22;4963;51.444;6.528;2022-08-16T02:37:04;22.10;99.90
9849;DHT22;4963;51.444;6.528;2022-08-16T02:39:31;22.10;99.90
9849;DHT22;4963;51.444;6.528;2022-08-16T02:41:58;22.10;99.90
9849;DHT22;4963;51.444;6.528;2022-08-16T02:44:25;22.00;99.90
9849;DHT22;4963;51.444;6.528;2022-08-16T02:46:52;22.00;99.90
9849;DHT22;4963;51.444;6.528;2022-08-16T02:49:20;21.90;99.90
9849;DHT22;4963;51.444;6.528;2022-08-16T02:51:48;21.90;99.90
9849;DHT22;4963;51.444;6.528;2022-08-16T02:54:14;21.80;99.90
9849;DHT22;4963;51.444;6.528;2022-08-16T02:56:41;21.80;99.90
9849;DHT22;4963;51.444;6.528;2022-08-16T02:59:09;21.80;99.90
9849;DHT22;4963;51.444;6.528;2022-08-16T03:01:37;21.70;99.90
9849;DHT22;4963;51.444;6.528;2022-08-16T03:04:06;21.70;99.90
9849;DHT22;4963;51.444;6.528;2022-08-16T03:06:34;21.70;99.90
9849;DHT22;4963;51.444;6.528;2022-08-16T03:09:02;21.70;99.90
9849;DHT22;4963;51.444;6.528;2022-08-16T03:11:29;21.70;99.90
9849;DHT22;4963;51.444;6.528;2022-08-16T03:13:57;21.60;99.90
9849;DHT22;4963;51.444;6.528;2022-08-16T03:16:24;21.60;99.90
9849;DHT22;4963;51.444;6.528;2022-08-16T03:18:52;21.60;99.90
9849;DHT22;4963;51.444;6.528;2022-08-16T03:21:20;21.60;99.90
9849;DHT22;4963;51.444;6.528;2022-08-16T03:23:48;21.50;99.90
9849;DHT22;4963;51.444;6.528;2022-08-16T03:26:16;21.50;99.90
9849;DHT22;4963;51.444;6.528;2022-08-16T03:28:43;21.50;99.90
9849;DHT22;4963;51.444;6.528;2022-08-16T03:31:10;21.50;99.90
9849;DHT22;4963;51.444;6.528;2022-08-16T03:33:37;21.50;99.90
9849;DHT22;4963;51.444;6.528;2022-08-16T03:36:04;21.50;99.90
9849;DHT22;4963;51.444;6.528;2022-08-16T03:38:32;21.50;99.90
9849;DHT22;4963;51.444;6.528;2022-08-16T03:41:01;21.50;99.90
9849;DHT22;4963;51.444;6.528;2022-08-16T03:43:28;21.50;99.90
9849;DHT22;4963;51.444;6.528;2022-08-16T03:45:56;21.50;99.90
9849;DHT22;4963;51.444;6.528;2022-08-16T03:48:25;21.50;99.90
9849;DHT22;4963;51.444;6.528;2022-08-16T03:50:53;21.40;99.90
9849;DHT22;4963;51.444;6.528;2022-08-16T03:53:20;21.30;99.90
9849;DHT22;4963;51.444;6.528;2022-08-16T03:55:47;21.30;99.90
9849;DHT22;4963;51.444;6.528;2022-08-16T03:58:15;21.20;99.90
9849;DHT22;4963;51.444;6.528;2022-08-16T04:00:43;21.20;99.90
9849;DHT22;4963;51.444;6.528;2022-08-16T04:03:10;21.20;99.90
9849;DHT22;4963;51.444;6.528;2022-08-16T04:05:39;21.20;99.90
9849;DHT22;4963;51.444;6.528;2022-08-16T04:08:06;21.20;99.90
9849;DHT22;4963;51.444;6.528;2022-08-16T04:10:33;21.10;99.90
9849;DHT22;4963;51.444;6.528;2022-08-16T04:13:00;21.10;99.90
9849;DHT22;4963;51.444;6.528;2022-08-16T04:15:29;21.00;99.90
9849;DHT22;4963;51.444;6.528;2022-08-16T04:17:56;21.00;99.90
9849;DHT22;4963;51.444;6.528;2022-08-16T04:20:24;21.00;99.90
9849;DHT22;4963;51.444;6.528;2022-08-16T04:22:51;21.00;99.90
9849;DHT22;4963;51.444;6.528;2022-08-16T04:25:19;21.00;99.90
9849;DHT22;4963;51.444;6.528;2022-08-16T04:27:46;21.00;99.90
9849;DHT22;4963;51.444;6.528;2022-08-16T04:30:16;21.00;99.90
9849;DHT22;4963;51.444;6.528;2022-08-16T04:32:45;21.00;99.90
9849;DHT22;4963;51.444;6.528;2022-08-16T04:35:15;20.90;99.90
9849;DHT22;4963;51.444;6.528;2022-08-16T04:37:42;20.90;99.90
9849;DHT22;4963;51.444;6.528;2022-08-16T04:40:10;20.80;99.90
9849;DHT22;4963;51.444;6.528;2022-08-16T04:42:37;20.70;99.90
9849;DHT22;4963;51.444;6.528;2022-08-16T04:45:08;20.80;99.90
9849;DHT22;4963;51.444;6.528;2022-08-16T04:47:35;20.70;99.90
9849;DHT22;4963;51.444;6.528;2022-08-16T04:50:06;20.80;99.90
9849;DHT22;4963;51.444;6.528;2022-08-16T04:52:34;20.80;99.90
9849;DHT22;4963;51.444;6.528;2022-08-16T04:55:03;20.80;99.90
9849;DHT22;4963;51.444;6.528;2022-08-16T04:57:31;20.70;99.90
9849;DHT22;4963;51.444;6.528;2022-08-16T04:59:58;20.70;99.90
9849;DHT22;4963;51.444;6.528;2022-08-16T05:02:25;20.70;99.90
9849;DHT22;4963;51.444;6.528;2022-08-16T05:04:52;20.80;99.90
9849;DHT22;4963;51.444;6.528;2022-08-16T05:07:20;20.80;99.90
9849;DHT22;4963;51.444;6.528;2022-08-16T05:09:47;20.70;99.90
9849;DHT22;4963;51.444;6.528;2022-08-16T05:12:14;20.70;99.90
9849;DHT22;4963;51.444;6.528;2022-08-16T05:14:41;20.70;99.90
9849;DHT22;4963;51.444;6.528;2022-08-16T05:17:08;20.80;99.90
9849;DHT22;4963;51.444;6.528;2022-08-16T05:19:34;21.00;99.90
9849;DHT22;4963;51.444;6.528;2022-08-16T05:22:01;21.10;99.90
9849;DHT22;4963;51.444;6.528;2022-08-16T05:24:29;21.30;99.90
9849;DHT22;4963;51.444;6.528;2022-08-16T05:26:56;21.50;99.90
9849;DHT22;4963;51.444;6.528;2022-08-16T05:29:23;21.80;99.90
9849;DHT22;4963;51.444;6.528;2022-08-16T05:31:50;22.10;99.90
9849;DHT22;4963;51.444;6.528;2022-08-16T05:34:17;22.40;99.90
9849;DHT22;4963;51.444;6.528;2022-08-16T05:36:46;22.70;99.90
9849;DHT22;4963;51.444;6.528;2022-08-16T05:39:13;22.90;99.90
9849;DHT22;4963;51.444;6.528;2022-08-16T05:41:42;23.30;99.90
9849;DHT22;4963;51.444;6.528;2022-08-16T05:44:09;23.60;99.90
9849;DHT22;4963;51.444;6.528;2022-08-16T05:46:35;23.90;99.90
9849;DHT22;4963;51.444;6.528;2022-08-16T05:49:02;24.30;99.90
9849;DHT22;4963;51.444;6.528;2022-08-16T05:51:29;24.50;99.90
9849;DHT22;4963;51.444;6.528;2022-08-16T05:53:56;24.80;99.80
9849;DHT22;4963;51.444;6.528;2022-08-16T05:56:23;24.90;99.20
9849;DHT22;4963;51.444;6.528;2022-08-16T05:58:52;25.00;99.10
9849;DHT22;4963;51.444;6.528;2022-08-16T06:01:18;25.20;98.90
9849;DHT22;4963;51.444;6.528;2022-08-16T06:03:45;25.40;98.60
9849;DHT22;4963;51.444;6.528;2022-08-16T06:06:12;25.60;98.30
9849;DHT22;4963;51.444;6.528;2022-08-16T06:08:39;25.80;97.90
9849;DHT22;4963;51.444;6.528;2022-08-16T06:11:07;25.90;97.50
9849;DHT22;4963;51.444;6.528;2022-08-16T06:13:34;26.10;97.20
9849;DHT22;4963;51.444;6.528;2022-08-16T06:16:04;26.20;96.90
9849;DHT22;4963;51.444;6.528;2022-08-16T06:18:31;26.20;96.80
9849;DHT22;4963;51.444;6.528;2022-08-16T06:20:58;26.00;97.20
9849;DHT22;4963;51.444;6.528;2022-08-16T06:23:25;26.10;97.20
9849;DHT22;4963;51.444;6.528;2022-08-16T06:25:52;26.20;96.80
9849;DHT22;4963;51.444;6.528;2022-08-16T06:28:19;26.20;96.90
9849;DHT22;4963;51.444;6.528;2022-08-16T06:30:46;26.30;96.70
9849;DHT22;4963;51.444;6.528;2022-08-16T06:33:15;26.20;96.70
9849;DHT22;4963;51.444;6.528;2022-08-16T06:35:42;26.10;96.80
9849;DHT22;4963;51.444;6.528;2022-08-16T06:38:10;26.10;97.00
9849;DHT22;4963;51.444;6.528;2022-08-16T06:40:38;26.10;96.90
9849;DHT22;4963;51.444;6.528;2022-08-16T06:43:04;26.20;96.80
9849;DHT22;4963;51.444;6.528;2022-08-16T06:45:31;26.30;96.80
9849;DHT22;4963;51.444;6.528;2022-08-16T06:48:03;26.30;96.70
9849;DHT22;4963;51.444;6.528;2022-08-16T06:50:31;26.40;96.60
9849;DHT22;4963;51.444;6.528;2022-08-16T06:52:58;26.40;96.50
9849;DHT22;4963;51.444;6.528;2022-08-16T06:55:26;26.30;96.50
9849;DHT22;4963;51.444;6.528;2022-08-16T06:57:53;26.20;97.00
9849;DHT22;4963;51.444;6.528;2022-08-16T07:00:21;26.20;96.90
9849;DHT22;4963;51.444;6.528;2022-08-16T07:02:49;26.50;96.80
9849;DHT22;4963;51.444;6.528;2022-08-16T07:05:17;26.80;96.40
9849;DHT22;4963;51.444;6.528;2022-08-16T07:07:47;27.00;96.10
9849;DHT22;4963;51.444;6.528;2022-08-16T07:10:17;27.30;95.60
9849;DHT22;4963;51.444;6.528;2022-08-16T07:12:44;27.60;95.20
9849;DHT22;4963;51.444;6.528;2022-08-16T07:15:15;27.80;94.90
9849;DHT22;4963;51.444;6.528;2022-08-16T07:17:43;28.10;94.50
9849;DHT22;4963;51.444;6.528;2022-08-16T07:20:11;28.30;94.00
9849;DHT22;4963;51.444;6.528;2022-08-16T07:22:38;28.20;93.70
9849;DHT22;4963;51.444;6.528;2022-08-16T07:25:09;28.00;94.20
9849;DHT22;4963;51.444;6.528;2022-08-16T07:27:37;28.00;94.20
9849;DHT22;4963;51.444;6.528;2022-08-16T07:30:06;28.10;94.20
9849;DHT22;4963;51.444;6.528;2022-08-16T07:32:34;28.50;94.10
9849;DHT22;4963;51.444;6.528;2022-08-16T07:35:01;28.70;93.50
9849;DHT22;4963;51.444;6.528;2022-08-16T07:37:27;28.80;93.20
9849;DHT22;4963;51.444;6.528;2022-08-16T07:39:54;28.70;93.50
9849;DHT22;4963;51.444;6.528;2022-08-16T07:42:23;28.70;93.50
9849;DHT22;4963;51.444;6.528;2022-08-16T07:44:49;28.80;93.20
9849;DHT22;4963;51.444;6.528;2022-08-16T07:47:17;29.10;93.00
9849;DHT22;4963;51.444;6.528;2022-08-16T07:49:43;29.10;92.70
9849;DHT22;4963;51.444;6.528;2022-08-16T07:52:10;29.00;93.10
9849;DHT22;4963;51.444;6.528;2022-08-16T07:54:37;29.10;92.80
9849;DHT22;4963;51.444;6.528;2022-08-16T07:57:04;29.30;92.50
9849;DHT22;4963;51.444;6.528;2022-08-16T07:59:32;29.50;92.40
9849;DHT22;4963;51.444;6.528;2022-08-16T08:02:00;29.70;92.30
9849;DHT22;4963;51.444;6.528;2022-08-16T08:04:28;30.00;92.10
9849;DHT22;4963;51.444;6.528;2022-08-16T08:06:57;30.10;91.80
9849;DHT22;4963;51.444;6.528;2022-08-16T08:09:24;30.30;91.90
9849;DHT22;4963;51.444;6.528;2022-08-16T08:11:51;30.40;91.60
9849;DHT22;4963;51.444;6.528;2022-08-16T08:14:18;30.60;91.30
9849;DHT22;4963;51.444;6.528;2022-08-16T08:16:47;30.70;91.30
9849;DHT22;4963;51.444;6.528;2022-08-16T08:19:14;30.70;91.00
9849;DHT22;4963;51.444;6.528;2022-08-16T08:21:41;30.90;91.00
9849;DHT22;4963;51.444;6.528;2022-08-16T08:24:10;30.80;90.90
9849;DHT22;4963;51.444;6.528;2022-08-16T08:26:39;30.60;90.90
9849;DHT22;4963;51.444;6.528;2022-08-16T08:29:06;30.60;91.00
9849;DHT22;4963;51.444;6.528;2022-08-16T08:31:33;30.70;91.10
9849;DHT22;4963;51.444;6.528;2022-08-16T08:34:02;30.90;90.80
9849;DHT22;4963;51.444;6.528;2022-08-16T08:36:32;30.90;90.50
9849;DHT22;4963;51.444;6.528;2022-08-16T08:39:00;30.70;90.60
9849;DHT22;4963;51.444;6.528;2022-08-16T08:41:27;30.50;90.90
9849;DHT22;4963;51.444;6.528;2022-08-16T08:43:54;30.40;90.80
9849;DHT22;4963;51.444;6.528;2022-08-16T08:46:23;30.10;91.30
9849;DHT22;4963;51.444;6.528;2022-08-16T08:48:51;30.20;91.40
9849;DHT22;4963;51.444;6.528;2022-08-16T08:51:20;30.40;91.20
9849;DHT22;4963;51.444;6.528;2022-08-16T08:53:49;30.70;90.80
9849;DHT22;4963;51.444;6.528;2022-08-16T08:56:17;30.80;90.60
9849;DHT22;4963;51.444;6.528;2022-08-16T08:58:44;30.90;90.50
9849;DHT22;4963;51.444;6.528;2022-08-16T09:01:11;31.10;90.20
9849;DHT22;4963;51.444;6.528;2022-08-16T09:03:39;31.20;90.10
9849;DHT22;4963;51.444;6.528;2022-08-16T09:06:06;31.40;89.80
9849;DHT22;4963;51.444;6.528;2022-08-16T09:08:35;31.50;88.80
9849;DHT22;4963;51.444;6.528;2022-08-16T09:11:02;31.40;88.30
9849;DHT22;4963;51.444;6.528;2022-08-16T09:13:29;31.30;88.70
9849;DHT22;4963;51.444;6.528;2022-08-16T09:15:57;31.40;89.30
9849;DHT22;4963;51.444;6.528;2022-08-16T09:18:24;31.40;89.10
9849;DHT22;4963;51.444;6.528;2022-08-16T09:20:52;31.40;88.70
9849;DHT22;4963;51.444;6.528;2022-08-16T09:23:20;31.30;88.30
9849;DHT22;4963;51.444;6.528;2022-08-16T09:25:49;31.30;88.50
9849;DHT22;4963;51.444;6.528;2022-08-16T09:28:17;31.40;87.50
9849;DHT22;4963;51.444;6.528;2022-08-16T09:30:44;31.40;88.10
9849;DHT22;4963;51.444;6.528;2022-08-16T09:33:13;31.60;88.00
9849;DHT22;4963;51.444;6.528;2022-08-16T09:35:43;31.70;87.20
9849;DHT22;4963;51.444;6.528;2022-08-16T09:38:11;31.90;87.10
9849;DHT22;4963;51.444;6.528;2022-08-16T09:40:39;31.80;87.10
9849;DHT22;4963;51.444;6.528;2022-08-16T09:43:07;31.70;86.30
9849;DHT22;4963;51.444;6.528;2022-08-16T09:45:35;31.30;86.80
9849;DHT22;4963;51.444;6.528;2022-08-16T09:48:08;31.00;87.30
9849;DHT22;4963;51.444;6.528;2022-08-16T09:50:36;30.90;88.20
9849;DHT22;4963;51.444;6.528;2022-08-16T09:53:06;31.00;88.10
9849;DHT22;4963;51.444;6.528;2022-08-16T09:55:33;30.90;87.50
9849;DHT22;4963;51.444;6.528;2022-08-16T09:58:00;30.90;87.00
9849;DHT22;4963;51.444;6.528;2022-08-16T10:00:28;31.00;86.70
9849;DHT22;4963;51.444;6.528;2022-08-16T10:02:55;31.10;86.90
9849;DHT22;4963;51.444;6.528;2022-08-16T10:05:23;31.20;86.20
9849;DHT22;4963;51.444;6.528;2022-08-16T10:07:50;31.10;86.10
9849;DHT22;4963;51.444;6.528;2022-08-16T10:10:18;31.10;85.50
9849;DHT22;4963;51.444;6.528;2022-08-16T10:12:45;31.10;86.20
9849;DHT22;4963;51.444;6.528;2022-08-16T10:15:32;31.10;87.30
9849;DHT22;4963;51.444;6.528;2022-08-16T10:18:00;31.10;86.50
9849;DHT22;4963;51.444;6.528;2022-08-16T10:20:35;31.10;86.30
9849;DHT22;4963;51.444;6.528;2022-08-16T10:23:03;31.10;85.10
9849;DHT22;4963;51.444;6.528;2022-08-16T10:25:30;31.00;85.00
9849;DHT22;4963;51.444;6.528;2022-08-16T10:27:57;30.80;84.70
9849;DHT22;4963;51.444;6.528;2022-08-16T10:30:25;30.80;85.60
9849;DHT22;4963;51.444;6.528;2022-08-16T10:32:53;30.90;84.60
9849;DHT22;4963;51.444;6.528;2022-08-16T10:35:20;30.80;84.60
9849;DHT22;4963;51.444;6.528;2022-08-16T10:37:47;30.90;85.20
9849;DHT22;4963;51.444;6.528;2022-08-16T10:40:13;31.10;84.60
9849;DHT22;4963;51.444;6.528;2022-08-16T10:42:40;31.20;84.60
9849;DHT22;4963;51.444;6.528;2022-08-16T10:45:08;31.20;84.00
9849;DHT22;4963;51.444;6.528;2022-08-16T10:47:35;31.30;83.10
9849;DHT22;4963;51.444;6.528;2022-08-16T10:50:06;31.10;83.00
9849;DHT22;4963;51.444;6.528;2022-08-16T10:52:34;31.00;82.30
9849;DHT22;4963;51.444;6.528;2022-08-16T10:55:01;31.00;82.10
9849;DHT22;4963;51.444;6.528;2022-08-16T10:57:28;31.00;82.30
9849;DHT22;4963;51.444;6.528;2022-08-16T10:59:56;31.10;81.50
9849;DHT22;4963;51.444;6.528;2022-08-16T11:02:23;31.20;80.90
9849;DHT22;4963;51.444;6.528;2022-08-16T11:04:50;31.30;81.30
9849;DHT22;4963;51.444;6.528;2022-08-16T11:07:19;31.50;81.40
9849;DHT22;4963;51.444;6.528;2022-08-16T11:09:46;31.50;81.10
9849;DHT22;4963;51.444;6.528;2022-08-16T11:12:13;31.50;79.60
9849;DHT22;4963;51.444;6.528;2022-08-16T11:14:40;31.50;78.70
9849;DHT22;4963;51.444;6.528;2022-08-16T11:17:07;31.60;78.80
9849;DHT22;4963;51.444;6.528;2022-08-16T11:19:38;31.60;79.00
9849;DHT22;4963;51.444;6.528;2022-08-16T11:22:06;31.70;79.20
9849;DHT22;4963;51.444;6.528;2022-08-16T11:24:35;31.80;78.10
9849;DHT22;4963;51.444;6.528;2022-08-16T11:27:05;31.80;77.60
9849;DHT22;4963;51.444;6.528;2022-08-16T11:29:32;31.60;77.30
9849;DHT22;4963;51.444;6.528;2022-08-16T11:32:00;31.40;76.90
9849;DHT22;4963;51.444;6.528;2022-08-16T11:34:29;31.30;78.00
9849;DHT22;4963;51.444;6.528;2022-08-16T11:36:56;31.20;77.90
9849;DHT22;4963;51.444;6.528;2022-08-16T11:39:23;31.10;77.30
9849;DHT22;4963;51.444;6.528;2022-08-16T11:41:52;31.20;77.70
9849;DHT22;4963;51.444;6.528;2022-08-16T11:44:19;31.30;77.10
9849;DHT22;4963;51.444;6.528;2022-08-16T11:46:45;31.40;77.80
9849;DHT22;4963;51.444;6.528;2022-08-16T11:49:13;31.50;76.90
9849;DHT22;4963;51.444;6.528;2022-08-16T11:51:40;31.50;76.10
9849;DHT22;4963;51.444;6.528;2022-08-16T11:54:08;31.40;75.90
9849;DHT22;4963;51.444;6.528;2022-08-16T11:56:35;31.40;75.90
9849;DHT22;4963;51.444;6.528;2022-08-16T11:59:04;31.40;77.50
9849;DHT22;4963;51.444;6.528;2022-08-16T12:01:31;31.40;77.90
9849;DHT22;4963;51.444;6.528;2022-08-16T12:03:58;31.20;78.20
9849;DHT22;4963;51.444;6.528;2022-08-16T12:06:25;31.10;77.70
9849;DHT22;4963;51.444;6.528;2022-08-16T12:08:54;30.90;78.50
9849;DHT22;4963;51.444;6.528;2022-08-16T12:11:22;30.80;79.40
9849;DHT22;4963;51.444;6.528;2022-08-16T12:13:52;30.70;78.90
9849;DHT22;4963;51.444;6.528;2022-08-16T12:16:20;30.60;79.30
9849;DHT22;4963;51.444;6.528;2022-08-16T12:18:47;30.50;78.60
9849;DHT22;4963;51.444;6.528;2022-08-16T12:21:15;30.50;79.00
9849;DHT22;4963;51.444;6.528;2022-08-16T12:23:42;30.50;79.20
9849;DHT22;4963;51.444;6.528;2022-08-16T12:26:09;30.40;79.70
9849;DHT22;4963;51.444;6.528;2022-08-16T12:28:36;30.50;80.30
9849;DHT22;4963;51.444;6.528;2022-08-16T12:31:03;30.40;79.90
9849;DHT22;4963;51.444;6.528;2022-08-16T12:33:32;30.40;79.60
9849;DHT22;4963;51.444;6.528;2022-08-16T12:35:59;30.40;78.30
9849;DHT22;4963;51.444;6.528;2022-08-16T12:38:26;30.50;77.60
9849;DHT22;4963;51.444;6.528;2022-08-16T12:40:54;30.50;76.80
9849;DHT22;4963;51.444;6.528;2022-08-16T12:43:23;30.70;77.20
9849;DHT22;4963;51.444;6.528;2022-08-16T12:45:52;30.80;76.80
9849;DHT22;4963;51.444;6.528;2022-08-16T12:48:24;30.90;76.20
9849;DHT22;4963;51.444;6.528;2022-08-16T12:51:12;31.00;75.50
9849;DHT22;4963;51.444;6.528;2022-08-16T12:53:40;31.00;75.40
9849;DHT22;4963;51.444;6.528;2022-08-16T12:56:07;31.00;75.70
9849;DHT22;4963;51.444;6.528;2022-08-16T12:58:36;31.00;75.70
9849;DHT22;4963;51.444;6.528;2022-08-16T13:01:04;31.00;74.90
9849;DHT22;4963;51.444;6.528;2022-08-16T13:03:31;30.90;75.10
9849;DHT22;4963;51.444;6.528;2022-08-16T13:05:59;31.00;75.30
9849;DHT22;4963;51.444;6.528;2022-08-16T13:08:27;31.00;74.50
9849;DHT22;4963;51.444;6.528;2022-08-16T13:10:54;31.10;75.10
9849;DHT22;4963;51.444;6.528;2022-08-16T13:13:23;31.20;75.00
9849;DHT22;4963;51.444;6.528;2022-08-16T13:15:52;31.20;75.20
9849;DHT22;4963;51.444;6.528;2022-08-16T13:18:20;31.20;72.90
9849;DHT22;4963;51.444;6.528;2022-08-16T13:20:47;31.20;74.00
9849;DHT22;4963;51.444;6.528;2022-08-16T13:23:15;31.20;73.20
9849;DHT22;4963;51.444;6.528;2022-08-16T13:25:46;31.30;72.70
9849;DHT22;4963;51.444;6.528;2022-08-16T13:28:13;31.40;72.50
9849;DHT22;4963;51.444;6.528;2022-08-16T13:30:43;31.40;71.60
9849;DHT22;4963;51.444;6.528;2022-08-16T13:33:12;31.40;71.60
9849;DHT22;4963;51.444;6.528;2022-08-16T13:35:39;31.40;71.60
9849;DHT22;4963;51.444;6.528;2022-08-16T13:38:06;31.40;72.20
9849;DHT22;4963;51.444;6.528;2022-08-16T13:40:34;31.40;72.00
9849;DHT22;4963;51.444;6.528;2022-08-16T13:43:02;31.30;72.30
9849;DHT22;4963;51.444;6.528;2022-08-16T13:45:29;31.30;72.00
9849;DHT22;4963;51.444;6.528;2022-08-16T13:47:57;31.20;72.70
9849;DHT22;4963;51.444;6.528;2022-08-16T13:50:24;31.20;70.70
9849;DHT22;4963;51.444;6.528;2022-08-16T13:52:52;31.10;71.50
9849;DHT22;4963;51.444;6.528;2022-08-16T13:55:20;31.10;71.60
9849;DHT22;4963;51.444;6.528;2022-08-16T13:57:47;31.20;70.40
9849;DHT22;4963;51.444;6.528;2022-08-16T14:00:16;31.20;70.40
9849;DHT22;4963;51.444;6.528;2022-08-16T14:02:43;31.20;68.80
9849;DHT22;4963;51.444;6.528;2022-08-16T14:05:11;31.20;69.20
9849;DHT22;4963;51.444;6.528;2022-08-16T14:07:38;31.20;70.10
9849;DHT22;4963;51.444;6.528;2022-08-16T14:10:08;31.20;69.40
9849;DHT22;4963;51.444;6.528;2022-08-16T14:12:35;31.10;70.50
9849;DHT22;4963;51.444;6.528;2022-08-16T14:15:04;31.00;71.10
9849;DHT22;4963;51.444;6.528;2022-08-16T14:17:32;31.00;71.70
9849;DHT22;4963;51.444;6.528;2022-08-16T14:19:59;30.90;71.50
9849;DHT22;4963;51.444;6.528;2022-08-16T14:22:28;30.80;71.10
9849;DHT22;4963;51.444;6.528;2022-08-16T14:24:57;30.90;72.00
9849;DHT22;4963;51.444;6.528;2022-08-16T14:27:25;31.00;72.30
9849;DHT22;4963;51.444;6.528;2022-08-16T14:29:53;31.20;70.70
9849;DHT22;4963;51.444;6.528;2022-08-16T14:32:23;31.20;70.40
9849;DHT22;4963;51.444;6.528;2022-08-16T14:34:52;31.30;70.20
9849;DHT22;4963;51.444;6.528;2022-08-16T14:37:19;31.20;71.10
9849;DHT22;4963;51.444;6.528;2022-08-16T14:39:46;31.30;70.70
9849;DHT22;4963;51.444;6.528;2022-08-16T14:42:15;31.20;70.20
9849;DHT22;4963;51.444;6.528;2022-08-16T14:44:42;31.10;69.40
9849;DHT22;4963;51.444;6.528;2022-08-16T14:47:10;31.00;69.20
9849;DHT22;4963;51.444;6.528;2022-08-16T14:49:36;30.90;70.40
9849;DHT22;4963;51.444;6.528;2022-08-16T14:52:07;30.90;71.20
9849;DHT22;4963;51.444;6.528;2022-08-16T14:54:35;30.90;70.90
9849;DHT22;4963;51.444;6.528;2022-08-16T14:57:03;30.90;71.60
9849;DHT22;4963;51.444;6.528;2022-08-16T14:59:30;30.90;70.90
9849;DHT22;4963;51.444;6.528;2022-08-16T15:01:58;30.80;71.20
9849;DHT22;4963;51.444;6.528;2022-08-16T15:04:26;30.80;71.40
9849;DHT22;4963;51.444;6.528;2022-08-16T15:06:52;30.70;71.30
9849;DHT22;4963;51.444;6.528;2022-08-16T15:09:21;30.80;71.00
9849;DHT22;4963;51.444;6.528;2022-08-16T15:11:48;30.70;71.10
9849;DHT22;4963;51.444;6.528;2022-08-16T15:14:15;30.80;72.20
9849;DHT22;4963;51.444;6.528;2022-08-16T15:16:42;30.90;72.30
9849;DHT22;4963;51.444;6.528;2022-08-16T15:19:08;30.90;71.90
9849;DHT22;4963;51.444;6.528;2022-08-16T15:21:36;31.00;72.20
9849;DHT22;4963;51.444;6.528;2022-08-16T15:24:03;31.10;72.10
9849;DHT22;4963;51.444;6.528;2022-08-16T15:26:31;31.10;70.80
9849;DHT22;4963;51.444;6.528;2022-08-16T15:28:58;31.10;70.80
9849;DHT22;4963;51.444;6.528;2022-08-16T15:31:25;31.10;70.60
9849;DHT22;4963;51.444;6.528;2022-08-16T15:33:52;31.00;70.30
9849;DHT22;4963;51.444;6.528;2022-08-16T15:36:20;30.90;70.90
9849;DHT22;4963;51.444;6.528;2022-08-16T15:38:49;30.80;71.90
9849;DHT22;4963;51.444;6.528;2022-08-16T15:41:56;30.80;71.70
9849;DHT22;4963;51.444;6.528;2022-08-16T15:44:24;30.70;72.40
9849;DHT22;4963;51.444;6.528;2022-08-16T15:46:52;30.60;72.50
9849;DHT22;4963;51.444;6.528;2022-08-16T15:49:20;30.60;73.00
9849;DHT22;4963;51.444;6.528;2022-08-16T15:51:46;30.60;73.20
9849;DHT22;4963;51.444;6.528;2022-08-16T15:54:13;30.50;73.00
9849;DHT22;4963;51.444;6.528;2022-08-16T15:56:41;30.40;72.30
9849;DHT22;4963;51.444;6.528;2022-08-16T15:59:09;30.40;72.60
9849;DHT22;4963;51.444;6.528;2022-08-16T16:01:36;30.30;72.50
9849;DHT22;4963;51.444;6.528;2022-08-16T16:04:03;30.30;72.50
9849;DHT22;4963;51.444;6.528;2022-08-16T16:06:30;30.30;73.10